sensor_id;sensor_type;location;lat;lon;timestamp;P1;durP1;ratioP1;P2;durP2;ratioP2
18407;SDS011;9330;52.210;21.174;2023-08-17T00:01:32;9.85;;;8.85;;
18407;SDS011;9330;52.210;21.174;2023-08-17T00:03:59;9.57;;;8.77;;
18407;SDS011;9330;52.210;21.174;2023-08-17T00:06:26;10.00;;;9.05;;
18407;SDS011;9330;52.210;21.174;2023-08-17T00:08:52;11.35;;;10.20;;
18407;SDS011;9330;52.210;21.174;2023-08-17T00:11:19;10.00;;;9.10;;
18407;SDS011;9330;52.210;21.174;2023-08-17T00:13:46;10.30;;;9.30;;
18407;SDS011;9330;52.210;21.174;2023-08-17T00:16:15;10.00;;;9.10;;
18407;SDS011;9330;52.210;21.174;2023-08-17T00:18:42;10.43;;;9.48;;
18407;SDS011;9330;52.210;21.174;2023-08-17T00:21:09;10.63;;;9.63;;
18407;SDS011;9330;52.210;21.174;2023-08-17T00:23:36;10.80;;;9.70;;
18407;SDS011;9330;52.210;21.174;2023-08-17T00:26:03;9.43;;;8.52;;
18407;SDS011;9330;52.210;21.174;2023-08-17T00:28:30;10.70;;;9.60;;
18407;SDS011;9330;52.210;21.174;2023-08-17T00:30:56;10.13;;;9.13;;
18407;SDS011;9330;52.210;21.174;2023-08-17T00:33:25;11.00;;;9.10;;
18407;SDS011;9330;52.210;21.174;2023-08-17T00:35:52;11.65;;;8.85;;
18407;SDS011;9330;52.210;21.174;2023-08-17T00:38:19;9.98;;;8.98;;
18407;SDS011;9330;52.210;21.174;2023-08-17T00:40:46;9.82;;;8.93;;
18407;SDS011;9330;52.210;21.174;2023-08-17T00:43:13;11.55;;;9.27;;
18407;SDS011;9330;52.210;21.174;2023-08-17T00:45:40;10.15;;;9.25;;
18407;SDS011;9330;52.210;21.174;2023-08-17T00:48:07;9.77;;;8.77;;
18407;SDS011;9330;52.210;21.174;2023-08-17T00:50:36;9.88;;;8.88;;
18407;SDS011;9330;52.210;21.174;2023-08-17T00:53:04;9.85;;;8.82;;
18407;SDS011;9330;52.210;21.174;2023-08-17T00:55:31;10.10;;;9.13;;
18407;SDS011;9330;52.210;21.174;2023-08-17T00:57:59;9.73;;;8.82;;
18407;SDS011;9330;52.210;21.174;2023-08-17T01:00:26;10.43;;;9.43;;
18407;SDS011;9330;52.210;21.174;2023-08-17T01:02:53;9.80;;;8.90;;
18407;SDS011;9330;52.210;21.174;2023-08-17T01:05:21;10.25;;;9.25;;
18407;SDS011;9330;52.210;21.174;2023-08-17T01:07:49;10.57;;;9.68;;
18407;SDS011;9330;52.210;21.174;2023-08-17T01:10:16;9.80;;;8.85;;
18407;SDS011;9330;52.210;21.174;2023-08-17T01:12:44;10.00;;;9.10;;
18407;SDS011;9330;52.210;21.174;2023-08-17T01:15:19;10.00;;;9.10;;
18407;SDS011;9330;52.210;21.174;2023-08-17T01:17:52;10.15;;;9.00;;
18407;SDS011;9330;52.210;21.174;2023-08-17T01:20:22;9.40;;;8.60;;
18407;SDS011;9330;52.210;21.174;2023-08-17T01:22:52;10.27;;;9.27;;
18407;SDS011;9330;52.210;21.174;2023-08-17T01:25:24;10.82;;;9.73;;
18407;SDS011;9330;52.210;21.174;2023-08-17T01:27:51;10.57;;;9.55;;
18407;SDS011;9330;52.210;21.174;2023-08-17T01:30:18;10.48;;;9.48;;
18407;SDS011;9330;52.210;21.174;2023-08-17T01:32:48;10.23;;;9.32;;
18407;SDS011;9330;52.210;21.174;2023-08-17T01:35:21;10.88;;;9.52;;
18407;SDS011;9330;52.210;21.174;2023-08-17T01:37:56;10.82;;;9.73;;
18407;SDS011;9330;52.210;21.174;2023-08-17T01:40:27;10.40;;;9.43;;
18407;SDS011;9330;52.210;21.174;2023-08-17T01:42:55;10.85;;;9.63;;
18407;SDS011;9330;52.210;21.174;2023-08-17T01:45:23;10.98;;;9.88;;
18407;SDS011;9330;52.210;21.174;2023-08-17T01:47:51;10.20;;;9.20;;
18407;SDS011;9330;52.210;21.174;2023-08-17T01:50:18;10.90;;;9.90;;
18407;SDS011;9330;52.210;21.174;2023-08-17T01:52:45;10.45;;;9.48;;
18407;SDS011;9330;52.210;21.174;2023-08-17T01:55:11;10.38;;;9.48;;
18407;SDS011;9330;52.210;21.174;2023-08-17T01:57:40;10.68;;;9.68;;
18407;SDS011;9330;52.210;21.174;2023-08-17T02:00:07;10.77;;;9.73;;
18407;SDS011;9330;52.210;21.174;2023-08-17T02:02:36;11.32;;;10.13;;
18407;SDS011;9330;52.210;21.174;2023-08-17T02:05:03;11.15;;;10.02;;
18407;SDS011;9330;52.210;21.174;2023-08-17T02:07:30;11.30;;;10.10;;
18407;SDS011;9330;52.210;21.174;2023-08-17T02:09:57;10.80;;;9.70;;
18407;SDS011;9330;52.210;21.174;2023-08-17T02:12:24;11.25;;;9.98;;
18407;SDS011;9330;52.210;21.174;2023-08-17T02:14:52;10.95;;;9.95;;
18407;SDS011;9330;52.210;21.174;2023-08-17T02:17:19;10.88;;;9.88;;
18407;SDS011;9330;52.210;21.174;2023-08-17T02:19:47;10.77;;;9.80;;
18407;SDS011;9330;52.210;21.174;2023-08-17T02:22:15;10.50;;;9.55;;
18407;SDS011;9330;52.210;21.174;2023-08-17T02:24:42;10.88;;;9.93;;
18407;SDS011;9330;52.210;21.174;2023-08-17T02:27:10;10.90;;;9.80;;
18407;SDS011;9330;52.210;21.174;2023-08-17T02:29:37;10.43;;;9.48;;
18407;SDS011;9330;52.210;21.174;2023-08-17T02:32:06;11.45;;;10.35;;
18407;SDS011;9330;52.210;21.174;2023-08-17T02:34:33;11.63;;;10.63;;
18407;SDS011;9330;52.210;21.174;2023-08-17T02:37:00;11.43;;;10.43;;
18407;SDS011;9330;52.210;21.174;2023-08-17T02:39:27;11.27;;;10.18;;
18407;SDS011;9330;52.210;21.174;2023-08-17T02:41:54;10.73;;;9.82;;
18407;SDS011;9330;52.210;21.174;2023-08-17T02:44:20;11.32;;;10.23;;
18407;SDS011;9330;52.210;21.174;2023-08-17T02:46:47;11.82;;;10.73;;
18407;SDS011;9330;52.210;21.174;2023-08-17T02:49:15;12.40;;;10.10;;
18407;SDS011;9330;52.210;21.174;2023-08-17T02:51:42;10.80;;;9.80;;
18407;SDS011;9330;52.210;21.174;2023-08-17T02:54:09;11.50;;;10.25;;
18407;SDS011;9330;52.210;21.174;2023-08-17T02:56:36;10.45;;;9.65;;
18407;SDS011;9330;52.210;21.174;2023-08-17T02:59:04;11.75;;;10.65;;
18407;SDS011;9330;52.210;21.174;2023-08-17T03:01:30;11.60;;;10.60;;
18407;SDS011;9330;52.210;21.174;2023-08-17T03:03:57;12.95;;;10.52;;
18407;SDS011;9330;52.210;21.174;2023-08-17T03:06:26;11.32;;;10.23;;
18407;SDS011;9330;52.210;21.174;2023-08-17T03:08:52;10.52;;;9.50;;
18407;SDS011;9330;52.210;21.174;2023-08-17T03:11:20;11.50;;;10.48;;
18407;SDS011;9330;52.210;21.174;2023-08-17T03:13:46;11.82;;;10.52;;
18407;SDS011;9330;52.210;21.174;2023-08-17T03:16:13;10.27;;;9.30;;
18407;SDS011;9330;52.210;21.174;2023-08-17T03:18:40;11.18;;;10.07;;
18407;SDS011;9330;52.210;21.174;2023-08-17T03:21:08;10.75;;;9.68;;
18407;SDS011;9330;52.210;21.174;2023-08-17T03:23:36;11.65;;;10.07;;
18407;SDS011;9330;52.210;21.174;2023-08-17T03:26:03;10.63;;;9.70;;
18407;SDS011;9330;52.210;21.174;2023-08-17T03:28:29;11.18;;;10.27;;
18407;SDS011;9330;52.210;21.174;2023-08-17T03:30:56;11.02;;;9.98;;
18407;SDS011;9330;52.210;21.174;2023-08-17T03:33:23;11.15;;;10.05;;
18407;SDS011;9330;52.210;21.174;2023-08-17T03:35:50;10.70;;;9.55;;
18407;SDS011;9330;52.210;21.174;2023-08-17T03:38:17;10.73;;;9.82;;
18407;SDS011;9330;52.210;21.174;2023-08-17T03:40:45;11.32;;;10.13;;
18407;SDS011;9330;52.210;21.174;2023-08-17T03:43:12;10.40;;;9.50;;
18407;SDS011;9330;52.210;21.174;2023-08-17T03:45:40;11.98;;;9.90;;
18407;SDS011;9330;52.210;21.174;2023-08-17T03:48:07;11.68;;;10.57;;
18407;SDS011;9330;52.210;21.174;2023-08-17T03:50:34;11.45;;;10.35;;
18407;SDS011;9330;52.210;21.174;2023-08-17T03:53:02;10.63;;;9.68;;
18407;SDS011;9330;52.210;21.174;2023-08-17T03:55:28;13.05;;;10.73;;
18407;SDS011;9330;52.210;21.174;2023-08-17T03:57:57;11.43;;;9.98;;
18407;SDS011;9330;52.210;21.174;2023-08-17T04:00:23;11.68;;;10.65;;
18407;SDS011;9330;52.210;21.174;2023-08-17T04:02:50;11.38;;;10.23;;
18407;SDS011;9330;52.210;21.174;2023-08-17T04:05:17;11.27;;;10.23;;
18407;SDS011;9330;52.210;21.174;2023-08-17T04:07:44;12.35;;;10.15;;
18407;SDS011;9330;52.210;21.174;2023-08-17T04:10:12;11.60;;;10.50;;
18407;SDS011;9330;52.210;21.174;2023-08-17T04:12:39;11.57;;;10.52;;
18407;SDS011;9330;52.210;21.174;2023-08-17T04:15:08;11.73;;;10.68;;
18407;SDS011;9330;52.210;21.174;2023-08-17T04:17:35;11.55;;;10.45;;
18407;SDS011;9330;52.210;21.174;2023-08-17T04:20:00;11.45;;;10.35;;
18407;SDS011;9330;52.210;21.174;2023-08-17T04:22:27;11.10;;;10.00;;
18407;SDS011;9330;52.210;21.174;2023-08-17T04:24:55;11.23;;;10.23;;
18407;SDS011;9330;52.210;21.174;2023-08-17T04:27:22;13.38;;;10.68;;
18407;SDS011;9330;52.210;21.174;2023-08-17T04:29:48;11.75;;;10.73;;
18407;SDS011;9330;52.210;21.174;2023-08-17T04:32:17;11.00;;;9.85;;
18407;SDS011;9330;52.210;21.174;2023-08-17T04:34:44;11.48;;;10.45;;
18407;SDS011;9330;52.210;21.174;2023-08-17T04:37:13;11.35;;;10.35;;
18407;SDS011;9330;52.210;21.174;2023-08-17T04:39:40;11.57;;;10.48;;
18407;SDS011;9330;52.210;21.174;2023-08-17T04:42:08;11.40;;;10.30;;
18407;SDS011;9330;52.210;21.174;2023-08-17T04:44:35;11.55;;;10.45;;
18407;SDS011;9330;52.210;21.174;2023-08-17T04:47:02;10.88;;;9.98;;
18407;SDS011;9330;52.210;21.174;2023-08-17T04:49:30;11.77;;;10.60;;
18407;SDS011;9330;52.210;21.174;2023-08-17T04:51:57;11.25;;;10.25;;
18407;SDS011;9330;52.210;21.174;2023-08-17T04:54:24;11.70;;;10.60;;
18407;SDS011;9330;52.210;21.174;2023-08-17T04:56:51;11.13;;;10.02;;
18407;SDS011;9330;52.210;21.174;2023-08-17T04:59:18;11.68;;;10.32;;
18407;SDS011;9330;52.210;21.174;2023-08-17T05:01:44;11.73;;;10.52;;
18407;SDS011;9330;52.210;21.174;2023-08-17T05:04:11;11.63;;;10.27;;
18407;SDS011;9330;52.210;21.174;2023-08-17T05:06:40;11.10;;;10.10;;
18407;SDS011;9330;52.210;21.174;2023-08-17T05:09:07;11.10;;;10.10;;
18407;SDS011;9330;52.210;21.174;2023-08-17T05:11:34;10.80;;;9.80;;
18407;SDS011;9330;52.210;21.174;2023-08-17T05:14:01;10.70;;;9.80;;
18407;SDS011;9330;52.210;21.174;2023-08-17T05:16:28;10.77;;;9.75;;
18407;SDS011;9330;52.210;21.174;2023-08-17T05:18:55;10.02;;;9.13;;
18407;SDS011;9330;52.210;21.174;2023-08-17T05:21:23;10.90;;;9.93;;
18407;SDS011;9330;52.210;21.174;2023-08-17T05:23:51;10.63;;;9.63;;
18407;SDS011;9330;52.210;21.174;2023-08-17T05:26:18;10.55;;;9.60;;
18407;SDS011;9330;52.210;21.174;2023-08-17T05:28:45;9.95;;;9.05;;
18407;SDS011;9330;52.210;21.174;2023-08-17T05:31:11;10.25;;;9.25;;
18407;SDS011;9330;52.210;21.174;2023-08-17T05:33:38;9.63;;;8.73;;
18407;SDS011;9330;52.210;21.174;2023-08-17T05:36:06;9.63;;;8.73;;
18407;SDS011;9330;52.210;21.174;2023-08-17T05:38:33;10.55;;;9.15;;
18407;SDS011;9330;52.210;21.174;2023-08-17T05:41:01;9.73;;;8.82;;
18407;SDS011;9330;52.210;21.174;2023-08-17T05:43:28;9.73;;;8.77;;
18407;SDS011;9330;52.210;21.174;2023-08-17T05:45:56;10.15;;;9.10;;
18407;SDS011;9330;52.210;21.174;2023-08-17T05:48:24;9.35;;;8.55;;
18407;SDS011;9330;52.210;21.174;2023-08-17T05:50:51;9.77;;;8.88;;
18407;SDS011;9330;52.210;21.174;2023-08-17T05:53:17;10.02;;;9.13;;
18407;SDS011;9330;52.210;21.174;2023-08-17T05:55:44;9.07;;;8.23;;
18407;SDS011;9330;52.210;21.174;2023-08-17T05:58:15;8.80;;;7.90;;
18407;SDS011;9330;52.210;21.174;2023-08-17T06:00:41;9.27;;;8.30;;
18407;SDS011;9330;52.210;21.174;2023-08-17T06:03:08;9.48;;;8.32;;
18407;SDS011;9330;52.210;21.174;2023-08-17T06:05:35;7.97;;;6.95;;
18407;SDS011;9330;52.210;21.174;2023-08-17T06:08:02;9.77;;;7.38;;
18407;SDS011;9330;52.210;21.174;2023-08-17T06:10:29;8.30;;;7.03;;
18407;SDS011;9330;52.210;21.174;2023-08-17T06:12:56;7.57;;;6.93;;
18407;SDS011;9330;52.210;21.174;2023-08-17T06:15:25;7.80;;;7.00;;
18407;SDS011;9330;52.210;21.174;2023-08-17T06:17:52;9.15;;;7.13;;
18407;SDS011;9330;52.210;21.174;2023-08-17T06:20:19;8.07;;;7.28;;
18407;SDS011;9330;52.210;21.174;2023-08-17T06:22:46;8.30;;;6.63;;
18407;SDS011;9330;52.210;21.174;2023-08-17T06:25:14;8.13;;;7.07;;
18407;SDS011;9330;52.210;21.174;2023-08-17T06:27:43;7.80;;;6.90;;
18407;SDS011;9330;52.210;21.174;2023-08-17T06:30:10;7.75;;;7.05;;
18407;SDS011;9330;52.210;21.174;2023-08-17T06:32:42;7.68;;;6.97;;
18407;SDS011;9330;52.210;21.174;2023-08-17T06:35:09;7.80;;;7.00;;
18407;SDS011;9330;52.210;21.174;2023-08-17T06:37:36;7.55;;;6.70;;
18407;SDS011;9330;52.210;21.174;2023-08-17T06:40:03;9.95;;;7.03;;
18407;SDS011;9330;52.210;21.174;2023-08-17T06:42:32;8.38;;;6.97;;
18407;SDS011;9330;52.210;21.174;2023-08-17T06:44:58;7.13;;;6.53;;
18407;SDS011;9330;52.210;21.174;2023-08-17T06:47:32;7.90;;;7.07;;
18407;SDS011;9330;52.210;21.174;2023-08-17T06:50:00;8.18;;;7.25;;
18407;SDS011;9330;52.210;21.174;2023-08-17T06:52:28;7.70;;;6.82;;
18407;SDS011;9330;52.210;21.174;2023-08-17T06:54:55;8.30;;;7.47;;
18407;SDS011;9330;52.210;21.174;2023-08-17T06:57:22;8.02;;;6.70;;
18407;SDS011;9330;52.210;21.174;2023-08-17T06:59:49;9.77;;;7.45;;
18407;SDS011;9330;52.210;21.174;2023-08-17T07:02:15;7.38;;;6.60;;
18407;SDS011;9330;52.210;21.174;2023-08-17T07:04:42;8.70;;;7.45;;
18407;SDS011;9330;52.210;21.174;2023-08-17T07:07:13;8.57;;;6.70;;
18407;SDS011;9330;52.210;21.174;2023-08-17T07:09:40;8.82;;;6.78;;
18407;SDS011;9330;52.210;21.174;2023-08-17T07:12:07;7.95;;;6.68;;
18407;SDS011;9330;52.210;21.174;2023-08-17T07:14:34;7.80;;;5.97;;
18407;SDS011;9330;52.210;21.174;2023-08-17T07:17:01;7.85;;;6.40;;
18407;SDS011;9330;52.210;21.174;2023-08-17T07:19:28;6.85;;;5.95;;
18407;SDS011;9330;52.210;21.174;2023-08-17T07:21:55;6.63;;;5.97;;
18407;SDS011;9330;52.210;21.174;2023-08-17T07:24:23;7.60;;;6.03;;
18407;SDS011;9330;52.210;21.174;2023-08-17T07:26:50;6.05;;;5.45;;
18407;SDS011;9330;52.210;21.174;2023-08-17T07:29:17;6.15;;;5.25;;
18407;SDS011;9330;52.210;21.174;2023-08-17T07:31:44;7.53;;;5.78;;
18407;SDS011;9330;52.210;21.174;2023-08-17T07:34:11;7.88;;;5.95;;
18407;SDS011;9330;52.210;21.174;2023-08-17T07:36:37;5.78;;;5.28;;
18407;SDS011;9330;52.210;21.174;2023-08-17T07:39:04;6.28;;;5.63;;
18407;SDS011;9330;52.210;21.174;2023-08-17T07:41:33;7.70;;;5.50;;
18407;SDS011;9330;52.210;21.174;2023-08-17T07:44:00;6.50;;;5.50;;
18407;SDS011;9330;52.210;21.174;2023-08-17T07:46:27;7.80;;;5.35;;
18407;SDS011;9330;52.210;21.174;2023-08-17T07:48:53;6.90;;;5.93;;
18407;SDS011;9330;52.210;21.174;2023-08-17T07:51:20;9.35;;;6.05;;
18407;SDS011;9330;52.210;21.174;2023-08-17T07:53:47;10.75;;;6.60;;
18407;SDS011;9330;52.210;21.174;2023-08-17T07:56:14;7.32;;;6.13;;
18407;SDS011;9330;52.210;21.174;2023-08-17T07:58:42;8.10;;;6.30;;
18407;SDS011;9330;52.210;21.174;2023-08-17T08:01:11;6.95;;;5.50;;
18407;SDS011;9330;52.210;21.174;2023-08-17T08:03:38;7.07;;;6.38;;
18407;SDS011;9330;52.210;21.174;2023-08-17T08:06:05;6.60;;;6.00;;
18407;SDS011;9330;52.210;21.174;2023-08-17T08:08:31;8.20;;;6.45;;
18407;SDS011;9330;52.210;21.174;2023-08-17T08:10:58;8.90;;;6.15;;
18407;SDS011;9330;52.210;21.174;2023-08-17T08:13:25;7.35;;;6.63;;
18407;SDS011;9330;52.210;21.174;2023-08-17T08:15:54;6.93;;;6.30;;
18407;SDS011;9330;52.210;21.174;2023-08-17T08:18:20;7.20;;;6.03;;
18407;SDS011;9330;52.210;21.174;2023-08-17T08:20:48;7.57;;;6.88;;
18407;SDS011;9330;52.210;21.174;2023-08-17T08:23:14;6.93;;;6.22;;
18407;SDS011;9330;52.210;21.174;2023-08-17T08:25:41;9.13;;;7.05;;
18407;SDS011;9330;52.210;21.174;2023-08-17T08:28:08;7.55;;;6.85;;
18407;SDS011;9330;52.210;21.174;2023-08-17T08:30:35;7.10;;;6.40;;
18407;SDS011;9330;52.210;21.174;2023-08-17T08:33:04;11.52;;;6.55;;
18407;SDS011;9330;52.210;21.174;2023-08-17T08:35:30;7.22;;;6.35;;
18407;SDS011;9330;52.210;21.174;2023-08-17T08:37:58;7.20;;;6.60;;
18407;SDS011;9330;52.210;21.174;2023-08-17T08:40:28;7.72;;;6.72;;
18407;SDS011;9330;52.210;21.174;2023-08-17T08:42:56;7.60;;;6.28;;
18407;SDS011;9330;52.210;21.174;2023-08-17T08:45:25;11.75;;;6.90;;
18407;SDS011;9330;52.210;21.174;2023-08-17T08:47:56;7.25;;;6.55;;
18407;SDS011;9330;52.210;21.174;2023-08-17T08:50:27;7.07;;;6.45;;
18407;SDS011;9330;52.210;21.174;2023-08-17T08:52:58;10.27;;;6.55;;
18407;SDS011;9330;52.210;21.174;2023-08-17T08:55:26;8.50;;;7.18;;
18407;SDS011;9330;52.210;21.174;2023-08-17T08:57:59;10.65;;;6.78;;
18407;SDS011;9330;52.210;21.174;2023-08-17T09:00:26;7.60;;;6.47;;
18407;SDS011;9330;52.210;21.174;2023-08-17T09:02:54;7.80;;;6.78;;
18407;SDS011;9330;52.210;21.174;2023-08-17T09:05:27;8.13;;;6.53;;
18407;SDS011;9330;52.210;21.174;2023-08-17T09:07:56;7.18;;;6.55;;
18407;SDS011;9330;52.210;21.174;2023-08-17T09:10:25;7.70;;;6.80;;
18407;SDS011;9330;52.210;21.174;2023-08-17T09:12:52;9.73;;;6.80;;
18407;SDS011;9330;52.210;21.174;2023-08-17T09:15:19;6.88;;;6.28;;
18407;SDS011;9330;52.210;21.174;2023-08-17T09:17:48;8.00;;;6.68;;
18407;SDS011;9330;52.210;21.174;2023-08-17T09:20:37;7.40;;;6.70;;
18407;SDS011;9330;52.210;21.174;2023-08-17T09:23:06;7.68;;;6.88;;
18407;SDS011;9330;52.210;21.174;2023-08-17T09:25:38;8.05;;;7.35;;
18407;SDS011;9330;52.210;21.174;2023-08-17T09:28:09;7.85;;;7.18;;
18407;SDS011;9330;52.210;21.174;2023-08-17T09:30:53;7.40;;;6.63;;
18407;SDS011;9330;52.210;21.174;2023-08-17T09:33:21;8.88;;;7.45;;
18407;SDS011;9330;52.210;21.174;2023-08-17T09:35:50;7.38;;;6.68;;
18407;SDS011;9330;52.210;21.174;2023-08-17T09:38:17;8.02;;;6.75;;
18407;SDS011;9330;52.210;21.174;2023-08-17T09:40:45;7.72;;;6.72;;
18407;SDS011;9330;52.210;21.174;2023-08-17T09:43:11;7.55;;;6.85;;
18407;SDS011;9330;52.210;21.174;2023-08-17T09:45:39;8.77;;;6.85;;
18407;SDS011;9330;52.210;21.174;2023-08-17T09:48:07;7.18;;;6.47;;
18407;SDS011;9330;52.210;21.174;2023-08-17T09:50:34;7.22;;;6.53;;
18407;SDS011;9330;52.210;21.174;2023-08-17T09:53:03;6.75;;;6.15;;
18407;SDS011;9330;52.210;21.174;2023-08-17T09:55:30;7.47;;;6.10;;
18407;SDS011;9330;52.210;21.174;2023-08-17T09:57:59;6.40;;;5.80;;
18407;SDS011;9330;52.210;21.174;2023-08-17T10:00:26;6.10;;;5.50;;
18407;SDS011;9330;52.210;21.174;2023-08-17T10:02:54;6.43;;;5.82;;
18407;SDS011;9330;52.210;21.174;2023-08-17T10:05:21;7.20;;;5.78;;
18407;SDS011;9330;52.210;21.174;2023-08-17T10:07:51;6.55;;;5.53;;
18407;SDS011;9330;52.210;21.174;2023-08-17T10:10:22;6.57;;;5.85;;
18407;SDS011;9330;52.210;21.174;2023-08-17T10:12:53;8.15;;;5.55;;
18407;SDS011;9330;52.210;21.174;2023-08-17T10:15:25;5.70;;;5.20;;
18407;SDS011;9330;52.210;21.174;2023-08-17T10:17:58;5.03;;;4.53;;
18407;SDS011;9330;52.210;21.174;2023-08-17T10:20:32;4.85;;;3.55;;
18407;SDS011;9330;52.210;21.174;2023-08-17T10:23:05;6.85;;;4.43;;
18407;SDS011;9330;52.210;21.174;2023-08-17T10:25:38;4.70;;;3.90;;
18407;SDS011;9330;52.210;21.174;2023-08-17T10:28:06;5.50;;;3.53;;
18407;SDS011;9330;52.210;21.174;2023-08-17T10:30:35;4.05;;;3.28;;
18407;SDS011;9330;52.210;21.174;2023-08-17T10:33:03;4.35;;;3.20;;
18407;SDS011;9330;52.210;21.174;2023-08-17T10:35:31;3.97;;;3.33;;
18407;SDS011;9330;52.210;21.174;2023-08-17T10:37:59;3.35;;;2.97;;
18407;SDS011;9330;52.210;21.174;2023-08-17T10:40:26;3.90;;;3.45;;
18407;SDS011;9330;52.210;21.174;2023-08-17T10:42:55;3.78;;;3.15;;
18407;SDS011;9330;52.210;21.174;2023-08-17T10:45:25;3.10;;;2.90;;
18407;SDS011;9330;52.210;21.174;2023-08-17T10:47:59;5.50;;;3.28;;
18407;SDS011;9330;52.210;21.174;2023-08-17T10:50:58;3.30;;;3.00;;
18407;SDS011;9330;52.210;21.174;2023-08-17T10:53:27;3.42;;;2.70;;
18407;SDS011;9330;52.210;21.174;2023-08-17T10:55:59;3.15;;;2.55;;
18407;SDS011;9330;52.210;21.174;2023-08-17T10:58:28;3.08;;;2.78;;
18407;SDS011;9330;52.210;21.174;2023-08-17T11:00:59;4.18;;;2.80;;
18407;SDS011;9330;52.210;21.174;2023-08-17T11:03:25;3.25;;;2.20;;
18407;SDS011;9330;52.210;21.174;2023-08-17T11:05:53;3.67;;;2.25;;
18407;SDS011;9330;52.210;21.174;2023-08-17T11:08:21;3.20;;;2.28;;
18407;SDS011;9330;52.210;21.174;2023-08-17T11:10:56;3.83;;;2.50;;
18407;SDS011;9330;52.210;21.174;2023-08-17T11:13:30;3.92;;;2.80;;
18407;SDS011;9330;52.210;21.174;2023-08-17T11:15:58;3.00;;;2.70;;
18407;SDS011;9330;52.210;21.174;2023-08-17T11:18:25;2.70;;;2.50;;
18407;SDS011;9330;52.210;21.174;2023-08-17T11:20:52;2.90;;;2.22;;
18407;SDS011;9330;52.210;21.174;2023-08-17T11:23:21;3.53;;;2.30;;
18407;SDS011;9330;52.210;21.174;2023-08-17T11:25:49;4.53;;;2.72;;
18407;SDS011;9330;52.210;21.174;2023-08-17T11:28:19;3.65;;;2.65;;
18407;SDS011;9330;52.210;21.174;2023-08-17T11:30:57;3.13;;;2.70;;
18407;SDS011;9330;52.210;21.174;2023-08-17T11:33:25;3.75;;;2.90;;
18407;SDS011;9330;52.210;21.174;2023-08-17T11:35:53;4.57;;;2.95;;
18407;SDS011;9330;52.210;21.174;2023-08-17T11:38:20;4.03;;;2.70;;
18407;SDS011;9330;52.210;21.174;2023-08-17T11:40:47;4.00;;;2.72;;
18407;SDS011;9330;52.210;21.174;2023-08-17T11:43:15;2.75;;;2.47;;
18407;SDS011;9330;52.210;21.174;2023-08-17T11:45:42;3.40;;;2.60;;
18407;SDS011;9330;52.210;21.174;2023-08-17T11:48:10;3.47;;;2.60;;
18407;SDS011;9330;52.210;21.174;2023-08-17T11:50:37;3.60;;;2.65;;
18407;SDS011;9330;52.210;21.174;2023-08-17T11:53:05;6.18;;;2.42;;
18407;SDS011;9330;52.210;21.174;2023-08-17T11:55:32;3.20;;;2.67;;
18407;SDS011;9330;52.210;21.174;2023-08-17T11:57:59;5.00;;;2.90;;
18407;SDS011;9330;52.210;21.174;2023-08-17T12:00:27;3.67;;;2.95;;
18407;SDS011;9330;52.210;21.174;2023-08-17T12:03:01;3.45;;;2.80;;
18407;SDS011;9330;52.210;21.174;2023-08-17T12:05:30;4.03;;;2.50;;
18407;SDS011;9330;52.210;21.174;2023-08-17T12:07:58;2.92;;;2.50;;
18407;SDS011;9330;52.210;21.174;2023-08-17T12:10:27;5.10;;;2.90;;
18407;SDS011;9330;52.210;21.174;2023-08-17T12:12:57;2.67;;;2.47;;
18407;SDS011;9330;52.210;21.174;2023-08-17T12:15:29;3.58;;;2.75;;
18407;SDS011;9330;52.210;21.174;2023-08-17T12:17:58;3.38;;;2.60;;
18407;SDS011;9330;52.210;21.174;2023-08-17T12:20:25;3.08;;;2.78;;
18407;SDS011;9330;52.210;21.174;2023-08-17T12:22:54;4.15;;;3.33;;
18407;SDS011;9330;52.210;21.174;2023-08-17T12:25:21;2.97;;;2.67;;
18407;SDS011;9330;52.210;21.174;2023-08-17T12:27:48;3.40;;;2.42;;
18407;SDS011;9330;52.210;21.174;2023-08-17T12:30:23;3.45;;;2.97;;
18407;SDS011;9330;52.210;21.174;2023-08-17T12:32:52;4.15;;;3.13;;
18407;SDS011;9330;52.210;21.174;2023-08-17T12:35:19;4.18;;;3.10;;
18407;SDS011;9330;52.210;21.174;2023-08-17T12:37:49;3.67;;;3.08;;
18407;SDS011;9330;52.210;21.174;2023-08-17T12:40:17;4.35;;;2.97;;
18407;SDS011;9330;52.210;21.174;2023-08-17T12:42:44;5.68;;;2.80;;
18407;SDS011;9330;52.210;21.174;2023-08-17T12:45:11;3.13;;;2.80;;
18407;SDS011;9330;52.210;21.174;2023-08-17T12:47:38;4.05;;;3.20;;
18407;SDS011;9330;52.210;21.174;2023-08-17T12:50:05;6.45;;;2.97;;
18407;SDS011;9330;52.210;21.174;2023-08-17T12:52:32;4.03;;;3.03;;
18407;SDS011;9330;52.210;21.174;2023-08-17T12:54:59;3.50;;;3.15;;
18407;SDS011;9330;52.210;21.174;2023-08-17T12:57:28;3.70;;;3.00;;
18407;SDS011;9330;52.210;21.174;2023-08-17T12:59:55;3.70;;;3.40;;
18407;SDS011;9330;52.210;21.174;2023-08-17T13:02:22;3.75;;;3.03;;
18407;SDS011;9330;52.210;21.174;2023-08-17T13:04:49;4.15;;;3.08;;
18407;SDS011;9330;52.210;21.174;2023-08-17T13:07:16;3.92;;;3.30;;
18407;SDS011;9330;52.210;21.174;2023-08-17T13:09:43;4.43;;;3.33;;
18407;SDS011;9330;52.210;21.174;2023-08-17T13:12:11;4.60;;;3.03;;
18407;SDS011;9330;52.210;21.174;2023-08-17T13:14:40;3.70;;;3.05;;
18407;SDS011;9330;52.210;21.174;2023-08-17T13:17:09;4.53;;;3.58;;
18407;SDS011;9330;52.210;21.174;2023-08-17T13:19:36;3.63;;;3.30;;
18407;SDS011;9330;52.210;21.174;2023-08-17T13:22:05;3.83;;;2.80;;
18407;SDS011;9330;52.210;21.174;2023-08-17T13:24:35;3.95;;;3.10;;
18407;SDS011;9330;52.210;21.174;2023-08-17T13:27:03;5.75;;;3.28;;
18407;SDS011;9330;52.210;21.174;2023-08-17T13:29:29;3.47;;;3.08;;
18407;SDS011;9330;52.210;21.174;2023-08-17T13:31:58;4.40;;;3.00;;
18407;SDS011;9330;52.210;21.174;2023-08-17T13:34:24;3.65;;;3.25;;
18407;SDS011;9330;52.210;21.174;2023-08-17T13:36:51;3.97;;;3.17;;
18407;SDS011;9330;52.210;21.174;2023-08-17T13:39:18;3.70;;;2.80;;
18407;SDS011;9330;52.210;21.174;2023-08-17T13:41:45;6.20;;;2.97;;
18407;SDS011;9330;52.210;21.174;2023-08-17T13:44:12;5.55;;;3.50;;
18407;SDS011;9330;52.210;21.174;2023-08-17T13:46:39;3.95;;;2.72;;
18407;SDS011;9330;52.210;21.174;2023-08-17T13:49:07;3.40;;;3.10;;
18407;SDS011;9330;52.210;21.174;2023-08-17T13:51:37;3.58;;;2.78;;
18407;SDS011;9330;52.210;21.174;2023-08-17T13:54:04;5.10;;;2.97;;
18407;SDS011;9330;52.210;21.174;2023-08-17T13:56:37;4.88;;;2.75;;
18407;SDS011;9330;52.210;21.174;2023-08-17T13:59:05;3.00;;;2.65;;
18407;SDS011;9330;52.210;21.174;2023-08-17T14:01:32;5.82;;;3.20;;
18407;SDS011;9330;52.210;21.174;2023-08-17T14:03:59;3.33;;;2.70;;
18407;SDS011;9330;52.210;21.174;2023-08-17T14:06:30;3.90;;;2.80;;
18407;SDS011;9330;52.210;21.174;2023-08-17T14:08:57;3.85;;;2.72;;
18407;SDS011;9330;52.210;21.174;2023-08-17T14:11:23;3.42;;;2.92;;
18407;SDS011;9330;52.210;21.174;2023-08-17T14:13:50;2.50;;;2.22;;
18407;SDS011;9330;52.210;21.174;2023-08-17T14:16:17;4.38;;;2.53;;
18407;SDS011;9330;52.210;21.174;2023-08-17T14:18:45;4.20;;;2.40;;
18407;SDS011;9330;52.210;21.174;2023-08-17T14:21:12;2.75;;;2.50;;
18407;SDS011;9330;52.210;21.174;2023-08-17T14:23:40;3.72;;;2.30;;
18407;SDS011;9330;52.210;21.174;2023-08-17T14:26:09;3.63;;;2.92;;
18407;SDS011;9330;52.210;21.174;2023-08-17T14:28:36;3.42;;;2.65;;
18407;SDS011;9330;52.210;21.174;2023-08-17T14:31:03;3.30;;;2.95;;
18407;SDS011;9330;52.210;21.174;2023-08-17T14:33:31;4.25;;;3.22;;
18407;SDS011;9330;52.210;21.174;2023-08-17T14:35:59;3.53;;;2.83;;
18407;SDS011;9330;52.210;21.174;2023-08-17T14:38:26;3.88;;;3.10;;
18407;SDS011;9330;52.210;21.174;2023-08-17T14:40:57;3.67;;;3.08;;
18407;SDS011;9330;52.210;21.174;2023-08-17T14:43:23;4.57;;;3.13;;
18407;SDS011;9330;52.210;21.174;2023-08-17T14:45:50;4.93;;;3.08;;